Rabb, Texas
Current Conditions -  °F | °C
As of 5:30 PM on Friday 19 Dec 2014 (Local Time) from KRBO Reporting Station
Overcast Overcast  
Wind Chill: 62°   Ceiling: 2800
Heat Index: 62°   Visibility: 10mi
Dew Point: 57°   Wind: 12mph
Humidity: 85%   Direction: 10°N
Pressure: 30.05"   Gusts: 16mph
Location:  27.7757°N, 97.7554°W
Report Text: KRBO 192330Z AUTO 01010G14KT 10SM SCT016 OVC028 17/14 A3005 RMK AO2 T01650140
Loading
Personal Weather Stations






























Interactive Weather Map New forecast layout! Learn more

10-Day Weather Forecast

Advertisements
Track Severe Weather on mobile